createdAt,value
2018-06-13T00:01:30.230Z,4.00
2018-06-13T00:03:59.258Z,5.00
2018-06-13T00:06:26.838Z,4.40
2018-06-13T00:08:54.418Z,4.40
2018-06-13T00:11:22.006Z,5.00
2018-06-13T00:13:50.576Z,5.00
2018-06-13T00:16:18.431Z,4.00
2018-06-13T00:18:46.016Z,5.00
2018-06-13T00:21:14.446Z,4.00
2018-06-13T00:23:42.457Z,4.60
2018-06-13T00:26:10.074Z,4.00
2018-06-13T00:28:37.657Z,4.00
2018-06-13T00:31:06.494Z,5.60
2018-06-13T00:33:35.005Z,4.40
2018-06-13T00:36:02.674Z,4.80
2018-06-13T00:38:30.562Z,5.00
2018-06-13T00:40:58.327Z,3.20
2018-06-13T00:43:26.568Z,5.40
2018-06-13T00:45:54.154Z,5.20
2018-06-13T00:48:23.389Z,5.00
2018-06-13T00:50:50.995Z,4.00
2018-06-13T00:53:18.573Z,5.60
2018-06-13T00:55:46.175Z,4.00
2018-06-13T00:58:14.045Z,5.00
2018-06-13T01:00:42.438Z,4.80
2018-06-13T01:03:10.818Z,4.40
2018-06-13T01:05:38.699Z,5.40
2018-06-13T01:08:06.269Z,5.00
2018-06-13T01:10:34.535Z,5.00
2018-06-13T01:13:02.119Z,2.00
2018-06-13T01:15:30.151Z,3.60
2018-06-13T01:17:57.778Z,1.40
2018-06-13T01:20:25.376Z,4.00
2018-06-13T01:22:53.482Z,2.80
2018-06-13T01:25:21.354Z,5.00
2018-06-13T01:27:49.578Z,4.40
2018-06-13T01:30:17.209Z,5.00
2018-06-13T01:32:48.944Z,4.60
2018-06-13T01:35:16.517Z,2.40
2018-06-13T01:37:44.118Z,3.60
2018-06-13T01:40:16.559Z,4.00
2018-06-13T01:42:44.393Z,4.00
2018-06-13T01:45:13.658Z,2.00
2018-06-13T01:47:41.590Z,3.60
2018-06-13T01:50:09.200Z,3.60
2018-06-13T01:52:37.754Z,4.00
2018-06-13T01:55:05.341Z,2.00
2018-06-13T01:57:34.086Z,4.40
2018-06-13T02:00:01.659Z,3.20
2018-06-13T02:02:29.293Z,2.00
2018-06-13T02:04:56.892Z,4.00
2018-06-13T02:07:26.776Z,4.40
2018-06-13T02:09:54.350Z,4.80
2018-06-13T02:12:21.930Z,5.00
2018-06-13T02:14:49.564Z,4.80
2018-06-13T02:17:18.443Z,4.00
2018-06-13T02:19:46.045Z,2.80
2018-06-13T02:22:13.677Z,3.20
2018-06-13T02:24:41.351Z,4.00
2018-06-13T02:27:09.286Z,3.60
2018-06-13T02:29:36.883Z,3.60
2018-06-13T02:32:04.463Z,4.00
2018-06-13T02:34:33.208Z,4.00
2018-06-13T02:37:01.171Z,2.00
2018-06-13T02:39:28.762Z,4.20
2018-06-13T02:41:56.339Z,4.20
2018-06-13T02:44:23.915Z,3.60
2018-06-13T02:46:51.816Z,4.80
2018-06-13T02:49:19.395Z,5.60
2018-06-13T02:51:47.026Z,4.00
2018-06-13T02:54:21.243Z,5.00
2018-06-13T02:56:48.840Z,4.00
2018-06-13T02:59:20.568Z,3.60
2018-06-13T03:01:48.184Z,5.00
2018-06-13T03:04:15.789Z,4.00
2018-06-13T03:06:43.368Z,2.80
2018-06-13T03:09:12.253Z,3.20
2018-06-13T03:11:39.893Z,4.00
2018-06-13T03:14:07.527Z,2.00
2018-06-13T03:16:35.145Z,4.00
2018-06-13T03:19:04.179Z,4.00
2018-06-13T03:21:31.782Z,2.40
2018-06-13T03:23:59.377Z,4.00
2018-06-13T03:26:29.395Z,4.00
2018-06-13T03:28:57.017Z,2.40
2018-06-13T03:31:24.628Z,4.00
2018-06-13T03:33:52.572Z,2.00
2018-06-13T03:36:20.201Z,2.00
2018-06-13T03:38:47.819Z,4.00
2018-06-13T03:41:15.486Z,2.00
2018-06-13T03:43:43.412Z,3.60
2018-06-13T03:46:11.818Z,2.00
2018-06-13T03:48:39.465Z,2.80
2018-06-13T03:51:07.493Z,1.40
2018-06-13T03:53:35.099Z,2.00
2018-06-13T03:56:02.694Z,3.20
2018-06-13T03:58:30.282Z,4.00
2018-06-13T04:00:58.158Z,2.00
2018-06-13T04:03:25.747Z,2.00
2018-06-13T04:05:53.331Z,4.00
2018-06-13T04:08:20.929Z,2.00
2018-06-13T04:10:48.779Z,1.80
2018-06-13T04:13:16.380Z,1.20
2018-06-13T04:15:43.983Z,2.00
2018-06-13T04:18:11.879Z,4.00
2018-06-13T04:20:39.486Z,2.40
2018-06-13T04:23:07.066Z,4.00
2018-06-13T04:25:34.667Z,3.60
2018-06-13T04:28:02.525Z,3.20
2018-06-13T04:30:30.154Z,1.00
2018-06-13T04:32:57.748Z,2.40
2018-06-13T04:35:25.620Z,3.20
2018-06-13T04:37:53.227Z,2.00
2018-06-13T04:40:20.806Z,2.40
2018-06-13T04:42:48.718Z,4.00
2018-06-13T04:45:16.290Z,2.80
2018-06-13T04:47:43.929Z,1.40
2018-06-13T04:50:11.800Z,3.20
2018-06-13T04:52:39.406Z,2.80
2018-06-13T04:55:06.986Z,2.00
2018-06-13T04:57:34.918Z,1.60
2018-06-13T05:00:02.519Z,3.20
2018-06-13T05:02:30.095Z,4.20
2018-06-13T05:04:57.970Z,4.00
2018-06-13T05:07:25.573Z,2.00
2018-06-13T05:09:53.213Z,4.00
2018-06-13T05:12:21.078Z,2.80
2018-06-13T05:14:48.693Z,5.20
2018-06-13T05:17:16.286Z,4.40
2018-06-13T05:19:44.188Z,3.60
2018-06-13T05:22:12.389Z,4.00
2018-06-13T05:24:39.979Z,3.60
2018-06-13T05:27:08.811Z,4.20
2018-06-13T05:29:36.405Z,4.00
2018-06-13T05:32:03.974Z,2.80
2018-06-13T05:34:31.832Z,5.00
2018-06-13T05:36:59.450Z,3.60
2018-06-13T05:39:27.055Z,3.20
2018-06-13T05:41:56.138Z,4.00
2018-06-13T05:44:23.735Z,2.00
2018-06-13T05:46:51.317Z,4.00
2018-06-13T05:49:19.202Z,4.00
2018-06-13T05:51:46.827Z,2.00
2018-06-13T05:54:14.396Z,2.80
2018-06-13T05:56:42.303Z,2.00
2018-06-13T05:59:09.924Z,2.00
2018-06-13T06:01:37.532Z,2.00
2018-06-13T06:04:05.141Z,2.00
2018-06-13T06:06:32.751Z,2.00
2018-06-13T06:09:00.588Z,4.00
2018-06-13T06:11:28.211Z,2.00
2018-06-13T06:13:56.758Z,2.00
2018-06-13T06:16:24.650Z,2.00
2018-06-13T06:18:52.241Z,1.60
2018-06-13T06:21:19.890Z,2.00
2018-06-13T06:23:47.804Z,2.00
2018-06-13T06:26:15.425Z,2.80
2018-06-13T06:28:43.658Z,4.40
2018-06-13T06:31:12.287Z,3.60
2018-06-13T06:33:40.482Z,2.00
2018-06-13T06:36:09.339Z,2.00
2018-06-13T06:38:37.222Z,2.00
2018-06-13T06:41:05.807Z,2.00
2018-06-13T06:43:33.385Z,2.00
2018-06-13T06:46:04.568Z,1.20
2018-06-13T06:48:32.417Z,2.00
2018-06-13T06:51:00.028Z,2.00
2018-06-13T06:53:27.899Z,2.40
2018-06-13T06:55:55.471Z,5.00
2018-06-13T06:58:23.066Z,3.20
2018-06-13T07:00:50.938Z,4.00
2018-06-13T07:03:18.526Z,4.00
2018-06-13T07:05:46.951Z,4.00
2018-06-13T07:08:15.421Z,3.20
2018-06-13T07:10:43.026Z,4.00
2018-06-13T07:13:11.062Z,4.00
2018-06-13T07:15:39.503Z,4.00
2018-06-13T07:18:07.104Z,5.00
2018-06-13T07:20:34.695Z,4.40
2018-06-13T07:23:02.579Z,4.00
2018-06-13T07:25:30.169Z,5.00
2018-06-13T07:27:57.747Z,4.00
2018-06-13T07:30:25.597Z,5.00
2018-06-13T07:32:53.251Z,4.20
2018-06-13T07:35:20.919Z,4.60
2018-06-13T07:37:50.519Z,4.40
2018-06-13T07:40:18.655Z,5.00
2018-06-13T07:42:46.234Z,5.00
2018-06-13T07:45:14.070Z,5.40
2018-06-13T07:47:41.647Z,5.00
2018-06-13T07:50:09.247Z,5.00
2018-06-13T07:52:37.926Z,5.00
2018-06-13T07:55:05.601Z,4.00
2018-06-13T07:57:33.196Z,5.00
2018-06-13T08:00:01.095Z,5.00
2018-06-13T08:02:28.694Z,5.00
2018-06-13T08:04:59.654Z,5.80
2018-06-13T08:07:28.086Z,5.00
2018-06-13T08:09:55.699Z,6.20
2018-06-13T08:12:23.287Z,5.00
2018-06-13T08:14:51.147Z,4.80
2018-06-13T08:17:19.441Z,5.40
2018-06-13T08:19:47.015Z,4.80
2018-06-13T08:22:15.710Z,5.00
2018-06-13T08:24:43.532Z,5.20
2018-06-13T08:27:11.869Z,5.00
2018-06-13T08:29:39.750Z,4.60
2018-06-13T08:32:08.695Z,5.00
2018-06-13T08:34:36.281Z,5.00
2018-06-13T08:37:04.189Z,5.40
2018-06-13T08:39:32.400Z,5.40
2018-06-13T08:42:01.479Z,6.00
2018-06-13T08:44:29.399Z,6.60
2018-06-13T08:46:57.675Z,5.00
2018-06-13T08:49:25.251Z,4.20
2018-06-13T08:51:54.271Z,4.20
2018-06-13T08:54:21.894Z,5.20
2018-06-13T08:56:49.490Z,5.20
2018-06-13T08:59:17.360Z,4.00
2018-06-13T09:01:44.952Z,5.00
2018-06-13T09:04:13.345Z,4.00
2018-06-13T09:06:47.696Z,5.00
2018-06-13T09:09:15.287Z,5.00
2018-06-13T09:11:42.887Z,6.00
2018-06-13T09:14:11.366Z,3.20
2018-06-13T09:16:39.230Z,4.40
2018-06-13T09:19:06.817Z,4.20
2018-06-13T09:21:34.686Z,4.00
2018-06-13T09:24:02.302Z,2.00
2018-06-13T09:26:29.914Z,2.00
2018-06-13T09:28:57.823Z,4.00
2018-06-13T09:31:26.037Z,2.80
2018-06-13T09:33:53.651Z,2.00
2018-06-13T09:36:22.059Z,2.40
2018-06-13T09:38:49.675Z,4.20
2018-06-13T09:41:17.306Z,4.00
2018-06-13T09:43:45.227Z,2.00
2018-06-13T09:46:12.871Z,3.20
2018-06-13T09:48:40.664Z,1.80
2018-06-13T09:51:08.526Z,3.20
2018-06-13T09:53:37.264Z,4.40
2018-06-13T09:56:04.859Z,3.20
2018-06-13T09:58:38.350Z,2.00
2018-06-13T10:01:08.007Z,1.20
2018-06-13T10:03:36.560Z,4.00
2018-06-13T10:06:04.931Z,3.60
2018-06-13T10:08:32.515Z,2.40
2018-06-13T10:11:01.543Z,3.20
2018-06-13T10:16:04.930Z,2.00
2018-06-13T10:18:33.557Z,2.00
2018-06-13T10:21:02.300Z,1.80
2018-06-13T10:23:30.567Z,2.00
2018-06-13T10:25:58.412Z,1.00
2018-06-13T10:28:26.013Z,2.00
2018-06-13T10:30:53.598Z,2.00
2018-06-13T10:33:22.147Z,2.00
2018-06-13T10:35:50.232Z,1.20
2018-06-13T10:38:17.819Z,2.00
2018-06-13T10:40:46.716Z,2.00
2018-06-13T10:43:16.530Z,2.00
2018-06-13T10:45:44.103Z,1.60
2018-06-13T10:48:12.955Z,1.20
2018-06-13T10:50:41.980Z,2.00
2018-06-13T10:53:09.549Z,2.00
2018-06-13T10:55:38.425Z,2.40
2018-06-13T10:58:08.754Z,2.00
2018-06-13T11:00:38.774Z,2.00
2018-06-13T11:03:07.936Z,4.00
2018-06-13T11:05:35.551Z,1.80
2018-06-13T11:08:03.146Z,2.00
2018-06-13T11:10:30.997Z,4.00
2018-06-13T11:12:58.598Z,2.40
2018-06-13T11:15:27.822Z,4.20
2018-06-13T11:17:56.686Z,2.00
2018-06-13T11:20:24.305Z,4.00
2018-06-13T11:22:51.950Z,2.00
2018-06-13T11:25:23.491Z,2.40
2018-06-13T11:27:51.091Z,3.20
2018-06-13T11:30:18.666Z,2.00
2018-06-13T11:32:49.120Z,2.00
2018-06-13T11:35:18.619Z,2.40
2018-06-13T11:37:46.440Z,3.60
2018-06-13T11:40:14.317Z,2.40
2018-06-13T11:42:42.830Z,2.00
2018-06-13T11:45:10.421Z,4.00
2018-06-13T11:47:38.287Z,2.00
2018-06-13T11:50:06.686Z,1.80
2018-06-13T11:52:35.057Z,3.20
2018-06-13T11:55:05.123Z,1.00
2018-06-13T11:57:33.563Z,1.80
2018-06-13T12:00:02.090Z,3.20
2018-06-13T12:02:31.003Z,2.00
2018-06-13T12:04:58.577Z,2.40
2018-06-13T12:07:26.163Z,2.80
2018-06-13T12:09:54.025Z,4.80
2018-06-13T12:12:21.618Z,2.00
2018-06-13T12:14:50.763Z,4.00
2018-06-13T12:17:18.631Z,3.60
2018-06-13T12:19:50.712Z,2.00
2018-06-13T12:22:18.329Z,2.00
2018-06-13T12:24:46.224Z,2.40
2018-06-13T12:27:17.477Z,4.00
2018-06-13T12:29:45.068Z,4.00
2018-06-13T12:32:12.959Z,4.00
2018-06-13T12:34:41.279Z,3.60
2018-06-13T12:37:10.275Z,2.00
2018-06-13T12:39:42.566Z,3.20
2018-06-13T12:42:13.742Z,2.40
2018-06-13T12:44:41.811Z,4.00
2018-06-13T12:47:11.249Z,2.00
2018-06-13T12:49:40.709Z,1.40
2018-06-13T12:52:09.254Z,2.00
2018-06-13T16:19:23.325Z,4.00
2018-06-13T16:21:50.999Z,7.00
2018-06-13T16:24:20.311Z,5.00
2018-06-13T16:26:47.903Z,7.00
2018-06-13T16:29:15.513Z,6.60
2018-06-13T16:31:43.446Z,7.00
2018-06-13T16:34:11.779Z,7.40
2018-06-13T16:36:40.555Z,4.40
2018-06-13T16:39:08.735Z,5.00
2018-06-13T16:41:36.502Z,7.00
2018-06-13T16:44:04.231Z,6.60
2018-06-13T16:46:32.296Z,5.00
2018-06-13T16:49:03.171Z,7.00
2018-06-13T16:51:31.462Z,5.00
2018-06-13T16:53:59.947Z,4.00
2018-06-13T16:56:28.188Z,4.00
2018-06-13T16:58:56.949Z,5.40
2018-06-13T17:01:24.806Z,4.60
2018-06-13T17:03:54.237Z,7.80
2018-06-13T17:06:21.854Z,5.00
2018-06-13T17:08:49.751Z,5.00
2018-06-13T17:11:17.333Z,5.80
2018-06-13T17:13:45.075Z,5.00
2018-06-13T17:16:13.496Z,5.00
2018-06-13T17:18:42.405Z,5.00
2018-06-13T17:21:10.822Z,5.00
2018-06-13T17:23:38.760Z,5.00
2018-06-13T17:26:06.581Z,4.00
2018-06-13T17:28:34.764Z,4.00
2018-06-13T17:31:04.540Z,5.00
2018-06-13T17:33:33.340Z,2.80
2018-06-13T17:36:02.279Z,4.80
2018-06-13T17:38:30.172Z,5.40
2018-06-13T17:40:59.412Z,3.80
2018-06-13T17:43:28.214Z,6.40
2018-06-13T17:45:56.342Z,4.20
2018-06-13T17:48:25.342Z,5.00
2018-06-13T17:50:54.334Z,6.60
2018-06-13T17:53:23.519Z,4.20
2018-06-13T17:55:51.924Z,6.20
2018-06-13T17:58:19.547Z,4.40
2018-06-13T18:00:48.287Z,4.40
2018-06-13T18:03:16.957Z,5.40
2018-06-13T18:05:45.153Z,5.00
2018-06-13T18:08:14.167Z,4.00
2018-06-13T18:10:42.443Z,4.80
2018-06-13T18:13:09.998Z,4.60
2018-06-13T18:15:37.858Z,5.00
2018-06-13T18:18:07.190Z,5.00
2018-06-13T18:20:37.534Z,5.80
2018-06-13T18:23:08.286Z,4.40
2018-06-13T18:25:37.105Z,5.40
2018-06-13T18:28:04.673Z,5.00
2018-06-13T18:30:32.529Z,5.00
2018-06-13T18:33:01.980Z,5.80
2018-06-13T18:35:29.604Z,5.20
2018-06-13T18:37:57.454Z,4.60
2018-06-13T18:40:25.181Z,4.60
2018-06-13T18:42:52.900Z,7.20
2018-06-13T18:45:22.458Z,4.40
2018-06-13T18:47:50.771Z,7.00
2018-06-13T18:50:18.400Z,5.20
2018-06-13T18:52:46.272Z,5.80
2018-06-13T18:55:16.069Z,4.80
2018-06-13T18:57:43.731Z,4.80
2018-06-13T19:00:11.571Z,4.40
2018-06-13T19:02:42.801Z,5.20
2018-06-13T19:05:12.332Z,5.00
2018-06-13T19:07:42.166Z,5.00
2018-06-13T19:10:10.525Z,5.40
2018-06-13T19:12:38.395Z,6.20
2018-06-13T19:15:06.330Z,5.00
2018-06-13T19:17:34.842Z,5.20
2018-06-13T19:20:03.850Z,5.40
2018-06-13T19:22:32.434Z,5.20
2018-06-13T19:25:00.860Z,5.20
2018-06-13T19:27:29.442Z,5.20
2018-06-13T19:29:57.290Z,5.20
2018-06-13T19:32:27.108Z,5.20
2018-06-13T19:34:55.304Z,7.20
2018-06-13T19:37:23.707Z,7.00
2018-06-13T19:39:51.559Z,5.00
2018-06-13T19:42:19.119Z,5.40
2018-06-13T19:44:46.995Z,7.00
2018-06-13T19:47:19.676Z,6.40
2018-06-13T19:49:52.422Z,5.00
2018-06-13T19:52:20.086Z,6.20
2018-06-13T19:54:52.715Z,6.60
2018-06-13T19:57:23.246Z,7.00
2018-06-13T19:59:51.804Z,8.60
2018-06-13T20:02:21.816Z,7.00
2018-06-13T20:04:54.749Z,6.00
2018-06-13T20:07:22.328Z,6.40
2018-06-13T20:09:50.779Z,8.60
2018-06-13T20:12:23.694Z,7.00
2018-06-13T20:14:56.236Z,6.00
2018-06-13T20:17:29.403Z,6.20
2018-06-13T20:19:57.455Z,7.80
2018-06-13T20:22:27.126Z,6.00
2018-06-13T20:25:01.154Z,6.40
2018-06-13T20:27:33.631Z,6.00
2018-06-13T20:30:06.326Z,4.80
2018-06-13T20:32:36.898Z,7.00
2018-06-13T20:35:05.435Z,6.00
2018-06-13T20:37:33.654Z,9.00
2018-06-13T20:40:03.431Z,7.20
2018-06-13T20:42:32.491Z,4.80
2018-06-13T20:45:00.463Z,6.80
2018-06-13T20:47:28.325Z,6.00
2018-06-13T20:49:58.424Z,8.20
2018-06-13T20:52:26.510Z,6.00
2018-06-13T20:54:55.295Z,6.40
2018-06-13T20:57:22.874Z,7.80
2018-06-13T20:59:53.387Z,7.00
2018-06-13T21:02:22.111Z,6.20
2018-06-13T21:04:49.700Z,6.20
2018-06-13T21:07:17.698Z,7.40
2018-06-13T21:09:45.554Z,6.80
2018-06-13T21:12:14.414Z,6.40
2018-06-13T21:14:42.863Z,7.00
2018-06-13T21:17:10.698Z,6.40
2018-06-13T21:19:38.286Z,7.00
2018-06-13T21:22:07.501Z,8.60
2018-06-13T21:24:35.382Z,8.20
2018-06-13T21:27:03.058Z,6.40
2018-06-13T21:29:30.651Z,9.00
2018-06-13T21:31:59.510Z,7.40
2018-06-13T21:34:27.109Z,6.80
2018-06-13T21:36:55.303Z,7.00
2018-06-13T21:39:24.773Z,6.40
2018-06-13T21:41:52.342Z,6.00
2018-06-13T21:44:19.942Z,6.00
2018-06-13T21:46:48.770Z,7.00
2018-06-13T21:49:17.766Z,7.00
2018-06-13T21:51:45.582Z,4.80
2018-06-13T21:54:14.360Z,6.40
2018-06-13T21:56:42.751Z,7.00
2018-06-13T21:59:14.486Z,7.40
2018-06-13T22:01:42.371Z,6.00
2018-06-13T22:04:09.923Z,7.00
2018-06-13T22:06:37.478Z,7.80
2018-06-13T22:09:05.291Z,7.00
2018-06-13T22:11:39.402Z,5.20
2018-06-13T22:14:08.569Z,7.00
2018-06-13T22:16:36.169Z,8.20
2018-06-13T22:19:14.255Z,6.20
2018-06-13T22:21:42.456Z,7.00
2018-06-13T22:24:10.178Z,4.00
2018-06-13T22:26:38.038Z,6.00
2018-06-13T22:29:06.257Z,8.60
2018-06-13T22:31:33.823Z,6.00
2018-06-13T22:34:02.643Z,9.20
2018-06-13T22:36:31.819Z,6.00
2018-06-13T22:38:59.387Z,9.00
2018-06-13T22:41:27.503Z,9.00
2018-06-13T22:43:56.414Z,9.00
2018-06-13T22:46:23.971Z,9.40
2018-06-13T22:48:51.535Z,8.80
2018-06-13T22:51:21.386Z,8.20
2018-06-13T22:53:49.007Z,7.00
2018-06-13T22:56:17.544Z,9.00
2018-06-13T22:58:45.138Z,9.80
2018-06-13T23:01:13.462Z,7.80
2018-06-13T23:03:41.264Z,6.40
2018-06-13T23:06:11.494Z,7.00
2018-06-13T23:08:40.250Z,7.00
2018-06-13T23:11:07.916Z,6.40
2018-06-13T23:13:36.400Z,7.40
2018-06-13T23:16:06.959Z,7.00
2018-06-13T23:18:34.518Z,7.00
2018-06-13T23:21:02.642Z,7.00
2018-06-13T23:23:30.487Z,9.00
2018-06-13T23:25:58.394Z,7.00
2018-06-13T23:28:26.806Z,8.60
2018-06-13T23:30:54.878Z,7.80
2018-06-13T23:33:23.615Z,4.00
2018-06-13T23:35:51.317Z,6.00
2018-06-13T23:38:22.550Z,8.60
2018-06-13T23:40:51.443Z,6.20
2018-06-13T23:43:20.079Z,10.00
2018-06-13T23:45:47.647Z,7.00
2018-06-13T23:48:16.323Z,7.40
2018-06-13T23:50:43.903Z,7.80
2018-06-13T23:53:11.462Z,7.40
2018-06-13T23:55:40.474Z,9.00
2018-06-13T23:58:09.184Z,7.00
